sensor_id;sensor_type;location;lat;lon;timestamp;pressure;altitude;pressure_sealevel;temperature;humidity
64668;BME280;51077;42.716;23.344;2024-03-08T00:01:06;95429.31;;;9.51;76.25
64668;BME280;51077;42.716;23.344;2024-03-08T00:03:32;95427.81;;;9.50;76.16
64668;BME280;51077;42.716;23.344;2024-03-08T00:05:58;95433.31;;;9.50;76.24
64668;BME280;51077;42.716;23.344;2024-03-08T00:08:23;95437.31;;;9.49;76.22
64668;BME280;51077;42.716;23.344;2024-03-08T00:10:49;95435.31;;;9.50;75.98
64668;BME280;51077;42.716;23.344;2024-03-08T00:13:14;95437.03;;;9.47;76.17
64668;BME280;51077;42.716;23.344;2024-03-08T00:15:40;95432.81;;;9.46;76.11
64668;BME280;51077;42.716;23.344;2024-03-08T00:18:06;95426.34;;;9.49;76.01
64668;BME280;51077;42.716;23.344;2024-03-08T00:20:32;95433.78;;;9.49;76.17
64668;BME280;51077;42.716;23.344;2024-03-08T00:22:58;95422.59;;;9.47;76.15
64668;BME280;51077;42.716;23.344;2024-03-08T00:25:24;95420.38;;;9.45;76.06
64668;BME280;51077;42.716;23.344;2024-03-08T00:27:49;95427.06;;;9.44;76.12
64668;BME280;51077;42.716;23.344;2024-03-08T00:30:15;95420.84;;;9.44;76.14
64668;BME280;51077;42.716;23.344;2024-03-08T00:32:40;95428.84;;;9.42;76.32
64668;BME280;51077;42.716;23.344;2024-03-08T00:35:06;95425.59;;;9.43;76.21
64668;BME280;51077;42.716;23.344;2024-03-08T00:37:32;95422.09;;;9.43;76.15
64668;BME280;51077;42.716;23.344;2024-03-08T00:39:59;95421.34;;;9.42;76.16
64668;BME280;51077;42.716;23.344;2024-03-08T00:42:25;95425.84;;;9.40;76.23
64668;BME280;51077;42.716;23.344;2024-03-08T00:44:50;95416.13;;;9.39;75.96
64668;BME280;51077;42.716;23.344;2024-03-08T00:47:16;95416.63;;;9.37;76.25
64668;BME280;51077;42.716;23.344;2024-03-08T00:49:41;95415.16;;;9.36;76.09
64668;BME280;51077;42.716;23.344;2024-03-08T00:52:08;95411.63;;;9.36;75.99
64668;BME280;51077;42.716;23.344;2024-03-08T00:54:34;95412.16;;;9.34;76.18
64668;BME280;51077;42.716;23.344;2024-03-08T00:56:59;95400.97;;;9.32;76.45
64668;BME280;51077;42.716;23.344;2024-03-08T00:59:28;95407.19;;;9.32;76.28
64668;BME280;51077;42.716;23.344;2024-03-08T01:01:53;95404.44;;;9.32;76.32
64668;BME280;51077;42.716;23.344;2024-03-08T01:04:19;95396.72;;;9.31;76.19
64668;BME280;51077;42.716;23.344;2024-03-08T01:06:45;95397.97;;;9.30;76.05
64668;BME280;51077;42.716;23.344;2024-03-08T01:09:12;95384.78;;;9.28;76.11
64668;BME280;51077;42.716;23.344;2024-03-08T01:11:38;95398.94;;;9.27;76.31
64668;BME280;51077;42.716;23.344;2024-03-08T01:14:03;95383.53;;;9.24;76.19
64668;BME280;51077;42.716;23.344;2024-03-08T01:16:29;95379.78;;;9.21;76.13
64668;BME280;51077;42.716;23.344;2024-03-08T01:18:54;95379.06;;;9.21;75.83
64668;BME280;51077;42.716;23.344;2024-03-08T01:21:20;95379.56;;;9.19;75.88
64668;BME280;51077;42.716;23.344;2024-03-08T01:23:45;95375.31;;;9.18;75.97
64668;BME280;51077;42.716;23.344;2024-03-08T01:26:11;95381.28;;;9.17;76.12
64668;BME280;51077;42.716;23.344;2024-03-08T01:28:36;95372.09;;;9.14;76.12
64668;BME280;51077;42.716;23.344;2024-03-08T01:31:02;95379.56;;;9.14;76.20
64668;BME280;51077;42.716;23.344;2024-03-08T01:33:29;95370.59;;;9.13;76.24
64668;BME280;51077;42.716;23.344;2024-03-08T01:35:55;95368.38;;;9.12;76.17
64668;BME280;51077;42.716;23.344;2024-03-08T01:38:22;95366.88;;;9.11;76.23
64668;BME280;51077;42.716;23.344;2024-03-08T01:40:48;95369.84;;;9.13;76.05
64668;BME280;51077;42.716;23.344;2024-03-08T01:43:27;95378.81;;;9.13;76.18
64668;BME280;51077;42.716;23.344;2024-03-08T01:45:59;95365.38;;;9.10;76.32
64668;BME280;51077;42.716;23.344;2024-03-08T01:48:28;95362.63;;;9.10;76.23
64668;BME280;51077;42.716;23.344;2024-03-08T01:50:55;95366.88;;;9.11;76.27
64668;BME280;51077;42.716;23.344;2024-03-08T01:53:21;95362.88;;;9.12;76.08
64668;BME280;51077;42.716;23.344;2024-03-08T01:55:48;95361.63;;;9.13;76.32
64668;BME280;51077;42.716;23.344;2024-03-08T01:58:14;95360.88;;;9.12;76.21
64668;BME280;51077;42.716;23.344;2024-03-08T02:00:48;95366.63;;;9.14;76.35
64668;BME280;51077;42.716;23.344;2024-03-08T02:03:16;95360.16;;;9.12;76.46
64668;BME280;51077;42.716;23.344;2024-03-08T02:05:42;95357.16;;;9.15;76.29
64668;BME280;51077;42.716;23.344;2024-03-08T02:08:09;95362.38;;;9.13;76.45
64668;BME280;51077;42.716;23.344;2024-03-08T02:10:44;95361.16;;;9.14;76.51
64668;BME280;51077;42.716;23.344;2024-03-08T02:13:10;95361.91;;;9.15;76.63
64668;BME280;51077;42.716;23.344;2024-03-08T02:15:55;95360.66;;;9.16;76.21
64668;BME280;51077;42.716;23.344;2024-03-08T02:18:22;95364.63;;;9.15;76.49
64668;BME280;51077;42.716;23.344;2024-03-08T02:20:52;95362.88;;;9.17;76.33
64668;BME280;51077;42.716;23.344;2024-03-08T02:23:21;95366.34;;;9.18;76.33
64668;BME280;51077;42.716;23.344;2024-03-08T02:25:47;95368.34;;;9.17;76.12
64668;BME280;51077;42.716;23.344;2024-03-08T02:28:13;95371.09;;;9.17;76.15
64668;BME280;51077;42.716;23.344;2024-03-08T02:30:39;95369.59;;;9.16;76.09
64668;BME280;51077;42.716;23.344;2024-03-08T02:33:06;95369.84;;;9.13;76.32
64668;BME280;51077;42.716;23.344;2024-03-08T02:35:32;95374.84;;;9.14;76.40
64668;BME280;51077;42.716;23.344;2024-03-08T02:37:59;95375.84;;;9.11;76.00
64668;BME280;51077;42.716;23.344;2024-03-08T02:40:24;95373.56;;;9.10;76.00
64668;BME280;51077;42.716;23.344;2024-03-08T02:42:50;95378.81;;;9.07;75.98
64668;BME280;51077;42.716;23.344;2024-03-08T02:45:15;95371.84;;;9.06;75.94
64668;BME280;51077;42.716;23.344;2024-03-08T02:47:40;95383.56;;;9.07;75.84
64668;BME280;51077;42.716;23.344;2024-03-08T02:50:06;95382.53;;;9.04;75.77
64668;BME280;51077;42.716;23.344;2024-03-08T02:52:34;95374.56;;;9.01;75.72
64668;BME280;51077;42.716;23.344;2024-03-08T02:55:00;95383.56;;;9.01;75.86
64668;BME280;51077;42.716;23.344;2024-03-08T02:57:26;95379.31;;;9.00;75.96
64668;BME280;51077;42.716;23.344;2024-03-08T02:59:53;95372.84;;;8.98;75.85
64668;BME280;51077;42.716;23.344;2024-03-08T03:02:18;95376.84;;;8.97;75.55
64668;BME280;51077;42.716;23.344;2024-03-08T03:04:44;95380.06;;;8.95;75.56
64668;BME280;51077;42.716;23.344;2024-03-08T03:07:09;95377.84;;;8.94;75.61
64668;BME280;51077;42.716;23.344;2024-03-08T03:09:36;95381.06;;;8.92;75.40
64668;BME280;51077;42.716;23.344;2024-03-08T03:12:01;95379.56;;;8.91;75.07
64668;BME280;51077;42.716;23.344;2024-03-08T03:14:27;95382.31;;;8.91;75.25
64668;BME280;51077;42.716;23.344;2024-03-08T03:16:53;95378.81;;;8.91;75.16
64668;BME280;51077;42.716;23.344;2024-03-08T03:19:19;95387.28;;;8.87;74.84
64668;BME280;51077;42.716;23.344;2024-03-08T03:21:45;95381.56;;;8.85;74.76
64668;BME280;51077;42.716;23.344;2024-03-08T03:24:11;95389.78;;;8.85;74.63
64668;BME280;51077;42.716;23.344;2024-03-08T03:26:40;95391.25;;;8.86;74.32
64668;BME280;51077;42.716;23.344;2024-03-08T03:29:06;95393.00;;;8.84;74.42
64668;BME280;51077;42.716;23.344;2024-03-08T03:31:32;95390.00;;;8.81;74.30
64668;BME280;51077;42.716;23.344;2024-03-08T03:33:57;95398.22;;;8.81;74.45
64668;BME280;51077;42.716;23.344;2024-03-08T03:36:31;95396.00;;;8.80;74.55
64668;BME280;51077;42.716;23.344;2024-03-08T03:38:56;95398.47;;;8.78;74.23
64668;BME280;51077;42.716;23.344;2024-03-08T03:41:31;95397.50;;;8.75;74.46
64668;BME280;51077;42.716;23.344;2024-03-08T03:43:57;95404.69;;;8.73;74.82
64668;BME280;51077;42.716;23.344;2024-03-08T03:46:22;95410.91;;;8.73;74.77
64668;BME280;51077;42.716;23.344;2024-03-08T03:48:48;95413.63;;;8.73;74.68
64668;BME280;51077;42.716;23.344;2024-03-08T03:51:13;95415.63;;;8.73;74.75
64668;BME280;51077;42.716;23.344;2024-03-08T03:53:40;95419.13;;;8.73;74.59
64668;BME280;51077;42.716;23.344;2024-03-08T03:56:06;95416.13;;;8.71;74.81
64668;BME280;51077;42.716;23.344;2024-03-08T03:58:32;95422.34;;;8.72;74.79
64668;BME280;51077;42.716;23.344;2024-03-08T04:00:58;95416.88;;;8.72;74.95
64668;BME280;51077;42.716;23.344;2024-03-08T04:03:23;95425.09;;;8.72;74.84
64668;BME280;51077;42.716;23.344;2024-03-08T04:05:49;95433.78;;;8.70;74.75
64668;BME280;51077;42.716;23.344;2024-03-08T04:08:14;95427.56;;;8.70;75.06
64668;BME280;51077;42.716;23.344;2024-03-08T04:10:40;95426.06;;;8.69;74.97
64668;BME280;51077;42.716;23.344;2024-03-08T04:13:09;95433.78;;;8.70;75.07
64668;BME280;51077;42.716;23.344;2024-03-08T04:15:37;95436.78;;;8.72;74.68
64668;BME280;51077;42.716;23.344;2024-03-08T04:18:03;95431.81;;;8.71;74.90
64668;BME280;51077;42.716;23.344;2024-03-08T04:20:29;95441.25;;;8.70;75.05
64668;BME280;51077;42.716;23.344;2024-03-08T04:22:55;95440.50;;;8.69;74.88
64668;BME280;51077;42.716;23.344;2024-03-08T04:25:21;95446.72;;;8.70;75.04
64668;BME280;51077;42.716;23.344;2024-03-08T04:27:47;95442.50;;;8.69;74.82
64668;BME280;51077;42.716;23.344;2024-03-08T04:30:14;95447.22;;;8.68;74.97
64668;BME280;51077;42.716;23.344;2024-03-08T04:32:39;95452.69;;;8.68;74.98
64668;BME280;51077;42.716;23.344;2024-03-08T04:35:06;95455.66;;;8.70;74.89
64668;BME280;51077;42.716;23.344;2024-03-08T04:37:33;95452.44;;;8.72;74.76
64668;BME280;51077;42.716;23.344;2024-03-08T04:39:59;95463.63;;;8.74;74.52
64668;BME280;51077;42.716;23.344;2024-03-08T04:42:25;95461.91;;;8.71;74.69
64668;BME280;51077;42.716;23.344;2024-03-08T04:44:52;95457.66;;;8.70;74.87
64668;BME280;51077;42.716;23.344;2024-03-08T04:47:19;95463.88;;;8.70;74.70
64668;BME280;51077;42.716;23.344;2024-03-08T04:49:45;95463.41;;;8.72;74.92
64668;BME280;51077;42.716;23.344;2024-03-08T04:52:11;95466.63;;;8.70;74.91
64668;BME280;51077;42.716;23.344;2024-03-08T04:54:37;95460.66;;;8.72;74.62
64668;BME280;51077;42.716;23.344;2024-03-08T04:57:03;95467.38;;;8.71;74.62
64668;BME280;51077;42.716;23.344;2024-03-08T04:59:30;95466.13;;;8.72;74.85
64668;BME280;51077;42.716;23.344;2024-03-08T05:01:55;95468.88;;;8.72;74.85
64668;BME280;51077;42.716;23.344;2024-03-08T05:04:21;95472.84;;;8.71;74.72
64668;BME280;51077;42.716;23.344;2024-03-08T05:06:48;95471.34;;;8.70;74.84
64668;BME280;51077;42.716;23.344;2024-03-08T05:09:14;95470.88;;;8.71;74.77
64668;BME280;51077;42.716;23.344;2024-03-08T05:11:43;95474.06;;;8.70;74.59
64668;BME280;51077;42.716;23.344;2024-03-08T05:14:10;95484.28;;;8.69;74.81
64668;BME280;51077;42.716;23.344;2024-03-08T05:16:35;95483.28;;;8.67;74.85
64668;BME280;51077;42.716;23.344;2024-03-08T05:19:02;95489.50;;;8.67;74.34
64668;BME280;51077;42.716;23.344;2024-03-08T05:21:27;95490.25;;;8.68;74.10
64668;BME280;51077;42.716;23.344;2024-03-08T05:23:54;95493.72;;;8.63;74.29
64668;BME280;51077;42.716;23.344;2024-03-08T05:26:20;95497.22;;;8.63;73.88
64668;BME280;51077;42.716;23.344;2024-03-08T05:28:45;95503.16;;;8.62;73.64
64668;BME280;51077;42.716;23.344;2024-03-08T05:31:21;95511.13;;;8.60;73.37
64668;BME280;51077;42.716;23.344;2024-03-08T05:33:49;95520.06;;;8.60;73.46
64668;BME280;51077;42.716;23.344;2024-03-08T05:36:15;95522.56;;;8.58;73.54
64668;BME280;51077;42.716;23.344;2024-03-08T05:38:42;95522.56;;;8.58;73.55
64668;BME280;51077;42.716;23.344;2024-03-08T05:41:09;95525.31;;;8.58;73.57
64668;BME280;51077;42.716;23.344;2024-03-08T05:43:34;95530.00;;;8.57;73.50
64668;BME280;51077;42.716;23.344;2024-03-08T05:46:00;95532.50;;;8.55;73.26
64668;BME280;51077;42.716;23.344;2024-03-08T05:48:25;95534.47;;;8.55;73.18
64668;BME280;51077;42.716;23.344;2024-03-08T05:50:51;95540.69;;;8.55;73.05
64668;BME280;51077;42.716;23.344;2024-03-08T05:53:16;95538.19;;;8.52;72.71
64668;BME280;51077;42.716;23.344;2024-03-08T05:55:42;95546.66;;;8.54;72.70
64668;BME280;51077;42.716;23.344;2024-03-08T05:58:07;95549.41;;;8.54;72.75
64668;BME280;51077;42.716;23.344;2024-03-08T06:00:34;95560.59;;;8.56;72.59
64668;BME280;51077;42.716;23.344;2024-03-08T06:03:01;95553.63;;;8.55;72.39
64668;BME280;51077;42.716;23.344;2024-03-08T06:05:27;95552.88;;;8.54;72.25
64668;BME280;51077;42.716;23.344;2024-03-08T06:07:53;95559.84;;;8.55;72.46
64668;BME280;51077;42.716;23.344;2024-03-08T06:10:18;95559.34;;;8.57;72.25
64668;BME280;51077;42.716;23.344;2024-03-08T06:12:45;95564.06;;;8.56;72.33
64668;BME280;51077;42.716;23.344;2024-03-08T06:15:13;95565.09;;;8.59;72.11
64668;BME280;51077;42.716;23.344;2024-03-08T06:17:41;95559.63;;;8.59;71.85
64668;BME280;51077;42.716;23.344;2024-03-08T06:20:07;95559.38;;;8.63;71.66
64668;BME280;51077;42.716;23.344;2024-03-08T06:22:38;95561.63;;;8.64;71.55
64668;BME280;51077;42.716;23.344;2024-03-08T06:25:06;95563.88;;;8.66;71.77
64668;BME280;51077;42.716;23.344;2024-03-08T06:27:32;95576.56;;;8.69;71.39
64668;BME280;51077;42.716;23.344;2024-03-08T06:30:02;95577.09;;;8.73;71.45
64668;BME280;51077;42.716;23.344;2024-03-08T06:32:27;95579.31;;;8.74;71.37
64668;BME280;51077;42.716;23.344;2024-03-08T06:34:53;95574.59;;;8.75;71.27
64668;BME280;51077;42.716;23.344;2024-03-08T06:37:19;95573.88;;;8.80;71.09
64668;BME280;51077;42.716;23.344;2024-03-08T06:39:48;95574.13;;;8.82;71.19
64668;BME280;51077;42.716;23.344;2024-03-08T06:42:13;95583.34;;;8.85;70.79
64668;BME280;51077;42.716;23.344;2024-03-08T06:44:41;95570.94;;;8.89;70.72
64668;BME280;51077;42.716;23.344;2024-03-08T06:47:17;95580.13;;;8.92;70.52
64668;BME280;51077;42.716;23.344;2024-03-08T06:49:43;95577.16;;;8.95;70.54
64668;BME280;51077;42.716;23.344;2024-03-08T06:52:09;95580.16;;;8.97;70.56
64668;BME280;51077;42.716;23.344;2024-03-08T06:54:35;95591.13;;;9.03;70.61
64668;BME280;51077;42.716;23.344;2024-03-08T06:57:04;95583.94;;;9.05;70.40
64668;BME280;51077;42.716;23.344;2024-03-08T06:59:31;95581.19;;;9.11;70.04
64668;BME280;51077;42.716;23.344;2024-03-08T07:01:56;95587.94;;;9.16;70.08
64668;BME280;51077;42.716;23.344;2024-03-08T07:04:21;95590.66;;;9.21;69.89
64668;BME280;51077;42.716;23.344;2024-03-08T07:06:51;95587.94;;;9.27;69.76
64668;BME280;51077;42.716;23.344;2024-03-08T07:09:17;95589.19;;;9.31;69.82
64668;BME280;51077;42.716;23.344;2024-03-08T07:11:43;95596.94;;;9.39;69.69
64668;BME280;51077;42.716;23.344;2024-03-08T07:14:08;95598.69;;;9.42;69.76
64668;BME280;51077;42.716;23.344;2024-03-08T07:16:34;95601.44;;;9.47;69.74
64668;BME280;51077;42.716;23.344;2024-03-08T07:19:01;95603.41;;;9.52;69.58
64668;BME280;51077;42.716;23.344;2024-03-08T07:21:26;95603.91;;;9.56;69.52
64668;BME280;51077;42.716;23.344;2024-03-08T07:23:52;95603.19;;;9.62;69.78
64668;BME280;51077;42.716;23.344;2024-03-08T07:26:26;95604.94;;;9.65;69.40
64668;BME280;51077;42.716;23.344;2024-03-08T07:28:53;95606.19;;;9.69;69.43
64668;BME280;51077;42.716;23.344;2024-03-08T07:31:22;95603.44;;;9.75;69.10
64668;BME280;51077;42.716;23.344;2024-03-08T07:33:50;95612.16;;;9.79;69.08
64668;BME280;51077;42.716;23.344;2024-03-08T07:36:16;95607.19;;;9.83;69.21
64668;BME280;51077;42.716;23.344;2024-03-08T07:38:41;95611.44;;;9.84;69.39
64668;BME280;51077;42.716;23.344;2024-03-08T07:41:07;95611.91;;;9.88;69.34
64668;BME280;51077;42.716;23.344;2024-03-08T07:43:32;95616.41;;;9.91;69.09
64668;BME280;51077;42.716;23.344;2024-03-08T07:46:00;95614.44;;;9.97;68.74
64668;BME280;51077;42.716;23.344;2024-03-08T07:48:26;95617.91;;;10.03;69.01
64668;BME280;51077;42.716;23.344;2024-03-08T07:50:52;95617.41;;;10.11;68.71
64668;BME280;51077;42.716;23.344;2024-03-08T07:53:17;95609.91;;;10.17;68.72
64668;BME280;51077;42.716;23.344;2024-03-08T07:55:42;95606.66;;;10.24;68.69
64668;BME280;51077;42.716;23.344;2024-03-08T07:58:09;95610.94;;;10.36;68.52
64668;BME280;51077;42.716;23.344;2024-03-08T08:00:36;95611.38;;;10.51;68.22
64668;BME280;51077;42.716;23.344;2024-03-08T08:03:02;95602.09;;;10.66;67.90
64668;BME280;51077;42.716;23.344;2024-03-08T08:05:27;95610.03;;;10.86;67.52
64668;BME280;51077;42.716;23.344;2024-03-08T08:07:53;95611.69;;;11.06;67.18
64668;BME280;51077;42.716;23.344;2024-03-08T08:10:18;95604.88;;;11.24;66.90
64668;BME280;51077;42.716;23.344;2024-03-08T08:12:50;95601.97;;;11.46;66.13
64668;BME280;51077;42.716;23.344;2024-03-08T08:15:17;95605.59;;;11.66;65.81
64668;BME280;51077;42.716;23.344;2024-03-08T08:17:43;95608.97;;;11.89;65.45
64668;BME280;51077;42.716;23.344;2024-03-08T08:20:12;95607.25;;;12.16;64.82
64668;BME280;51077;42.716;23.344;2024-03-08T08:22:38;95604.75;;;12.42;64.10
64668;BME280;51077;42.716;23.344;2024-03-08T08:25:05;95610.41;;;12.74;63.67
64668;BME280;51077;42.716;23.344;2024-03-08T08:27:30;95593.69;;;13.10;62.77
64668;BME280;51077;42.716;23.344;2024-03-08T08:29:56;95603.38;;;13.73;61.64
64668;BME280;51077;42.716;23.344;2024-03-08T08:32:22;95607.44;;;14.18;61.07
64668;BME280;51077;42.716;23.344;2024-03-08T08:34:47;95599.97;;;14.58;60.68
64668;BME280;51077;42.716;23.344;2024-03-08T08:37:13;95609.88;;;14.93;60.17
64668;BME280;51077;42.716;23.344;2024-03-08T08:39:38;95597.84;;;15.17;59.81
64668;BME280;51077;42.716;23.344;2024-03-08T08:42:04;95611.31;;;15.34;59.38
64668;BME280;51077;42.716;23.344;2024-03-08T08:44:29;95606.28;;;15.46;59.19
64668;BME280;51077;42.716;23.344;2024-03-08T08:46:57;95602.53;;;15.56;58.51
64668;BME280;51077;42.716;23.344;2024-03-08T08:49:22;95601.66;;;15.62;58.21
64668;BME280;51077;42.716;23.344;2024-03-08T08:51:52;95599.81;;;15.77;57.52
64668;BME280;51077;42.716;23.344;2024-03-08T08:54:18;95598.06;;;15.88;57.09
64668;BME280;51077;42.716;23.344;2024-03-08T08:56:44;95597.59;;;15.97;57.05
64668;BME280;51077;42.716;23.344;2024-03-08T08:59:10;95601.25;;;16.13;57.11
64668;BME280;51077;42.716;23.344;2024-03-08T09:01:41;95598.66;;;16.36;56.59
64668;BME280;51077;42.716;23.344;2024-03-08T09:04:07;95605.13;;;16.59;56.15
64668;BME280;51077;42.716;23.344;2024-03-08T09:06:33;95594.56;;;16.78;55.56
64668;BME280;51077;42.716;23.344;2024-03-08T09:08:59;95598.91;;;16.95;54.93
64668;BME280;51077;42.716;23.344;2024-03-08T09:11:25;95592.88;;;17.12;54.61
64668;BME280;51077;42.716;23.344;2024-03-08T09:13:51;95594.78;;;17.24;54.68
64668;BME280;51077;42.716;23.344;2024-03-08T09:16:17;95591.16;;;17.37;54.18
64668;BME280;51077;42.716;23.344;2024-03-08T09:18:42;95584.34;;;17.53;53.94
64668;BME280;51077;42.716;23.344;2024-03-08T09:21:08;95584.38;;;17.69;53.57
64668;BME280;51077;42.716;23.344;2024-03-08T09:23:38;95588.28;;;17.73;53.16
64668;BME280;51077;42.716;23.344;2024-03-08T09:26:03;95578.50;;;17.80;53.42
64668;BME280;51077;42.716;23.344;2024-03-08T09:28:29;95586.47;;;17.83;53.11
64668;BME280;51077;42.716;23.344;2024-03-08T09:30:55;95592.25;;;18.08;52.70
64668;BME280;51077;42.716;23.344;2024-03-08T09:33:20;95592.25;;;18.39;52.52
64668;BME280;51077;42.716;23.344;2024-03-08T09:35:47;95579.44;;;18.74;51.99
64668;BME280;51077;42.716;23.344;2024-03-08T09:38:13;95590.19;;;18.86;52.00
64668;BME280;51077;42.716;23.344;2024-03-08T09:40:43;95588.88;;;18.94;51.47
64668;BME280;51077;42.716;23.344;2024-03-08T09:43:12;95588.28;;;19.03;51.16
64668;BME280;51077;42.716;23.344;2024-03-08T09:45:37;95587.69;;;19.13;51.31
64668;BME280;51077;42.716;23.344;2024-03-08T09:48:10;95585.28;;;19.17;50.83
64668;BME280;51077;42.716;23.344;2024-03-08T09:50:42;95590.25;;;19.26;50.69
64668;BME280;51077;42.716;23.344;2024-03-08T09:53:08;95587.59;;;19.43;50.83
64668;BME280;51077;42.716;23.344;2024-03-08T09:55:36;95598.69;;;19.91;50.09
64668;BME280;51077;42.716;23.344;2024-03-08T09:58:05;95591.56;;;20.23;50.83
64668;BME280;51077;42.716;23.344;2024-03-08T10:00:46;95593.72;;;20.82;49.75
64668;BME280;51077;42.716;23.344;2024-03-08T10:03:12;95593.31;;;21.20;49.87
64668;BME280;51077;42.716;23.344;2024-03-08T10:05:40;95591.19;;;21.73;49.11
64668;BME280;51077;42.716;23.344;2024-03-08T10:08:06;95586.47;;;22.29;48.23
64668;BME280;51077;42.716;23.344;2024-03-08T10:10:34;95588.00;;;22.50;48.22
64668;BME280;51077;42.716;23.344;2024-03-08T10:12:59;95586.84;;;22.53;46.96
64668;BME280;51077;42.716;23.344;2024-03-08T10:15:27;95592.13;;;22.49;47.07
64668;BME280;51077;42.716;23.344;2024-03-08T10:17:58;95586.22;;;22.45;46.42
64668;BME280;51077;42.716;23.344;2024-03-08T10:20:24;95580.38;;;22.60;45.67
64668;BME280;51077;42.716;23.344;2024-03-08T10:22:49;95580.19;;;23.04;46.13
64668;BME280;51077;42.716;23.344;2024-03-08T10:25:16;95583.25;;;23.47;45.59
64668;BME280;51077;42.716;23.344;2024-03-08T10:27:42;95576.09;;;23.95;44.60
64668;BME280;51077;42.716;23.344;2024-03-08T10:30:14;95582.84;;;24.42;43.96
64668;BME280;51077;42.716;23.344;2024-03-08T10:32:41;95576.38;;;24.92;43.76
64668;BME280;51077;42.716;23.344;2024-03-08T10:35:09;95578.97;;;25.43;42.83
64668;BME280;51077;42.716;23.344;2024-03-08T10:37:48;95569.81;;;25.87;39.46
64668;BME280;51077;42.716;23.344;2024-03-08T10:40:19;95572.66;;;26.11;40.25
64668;BME280;51077;42.716;23.344;2024-03-08T10:42:58;95572.78;;;26.60;40.19
64668;BME280;51077;42.716;23.344;2024-03-08T10:45:40;95570.16;;;27.11;39.28
64668;BME280;51077;42.716;23.344;2024-03-08T10:48:24;95554.19;;;27.52;38.05
64668;BME280;51077;42.716;23.344;2024-03-08T10:50:53;95556.44;;;27.93;37.31
64668;BME280;51077;42.716;23.344;2024-03-08T10:53:19;95555.22;;;28.24;36.84
64668;BME280;51077;42.716;23.344;2024-03-08T10:55:49;95553.16;;;28.38;37.09
64668;BME280;51077;42.716;23.344;2024-03-08T10:58:15;95546.97;;;28.28;36.68
64668;BME280;51077;42.716;23.344;2024-03-08T11:00:42;95547.28;;;28.20;36.61
64668;BME280;51077;42.716;23.344;2024-03-08T11:06:05;95552.56;;;27.87;35.55
64668;BME280;51077;42.716;23.344;2024-03-08T11:08:31;95535.28;;;27.55;35.78
64668;BME280;51077;42.716;23.344;2024-03-08T11:10:59;95531.41;;;27.23;35.77
64668;BME280;51077;42.716;23.344;2024-03-08T11:13:42;95538.50;;;26.87;35.53
64668;BME280;51077;42.716;23.344;2024-03-08T11:16:12;95529.88;;;26.47;36.38
64668;BME280;51077;42.716;23.344;2024-03-08T11:18:49;95529.00;;;26.10;36.99
64668;BME280;51077;42.716;23.344;2024-03-08T11:21:14;95534.75;;;26.23;37.07
64668;BME280;51077;42.716;23.344;2024-03-08T11:23:40;95527.28;;;26.40;35.99
64668;BME280;51077;42.716;23.344;2024-03-08T11:26:23;95529.72;;;26.69;35.58
64668;BME280;51077;42.716;23.344;2024-03-08T11:28:49;95523.84;;;27.02;34.61
64668;BME280;51077;42.716;23.344;2024-03-08T11:33:46;95526.09;;;27.80;34.90
64668;BME280;51077;42.716;23.344;2024-03-08T11:36:20;95518.66;;;27.73;34.34
64668;BME280;51077;42.716;23.344;2024-03-08T11:38:48;95521.56;;;28.00;33.90
64668;BME280;51077;42.716;23.344;2024-03-08T11:41:18;95511.22;;;28.19;33.51
64668;BME280;51077;42.716;23.344;2024-03-08T11:43:48;95516.28;;;28.48;33.25
64668;BME280;51077;42.716;23.344;2024-03-08T11:46:15;95508.72;;;28.66;32.72
64668;BME280;51077;42.716;23.344;2024-03-08T11:48:42;95507.75;;;28.89;32.17
64668;BME280;51077;42.716;23.344;2024-03-08T11:51:16;95507.00;;;28.89;32.26
64668;BME280;51077;42.716;23.344;2024-03-08T11:53:44;95507.06;;;28.61;32.57
64668;BME280;51077;42.716;23.344;2024-03-08T11:56:11;95509.16;;;28.61;32.82
64668;BME280;51077;42.716;23.344;2024-03-08T11:58:38;95504.53;;;28.67;31.42
64668;BME280;51077;42.716;23.344;2024-03-08T12:01:08;95501.69;;;28.81;31.02
64668;BME280;51077;42.716;23.344;2024-03-08T12:03:42;95505.13;;;28.93;31.13
64668;BME280;51077;42.716;23.344;2024-03-08T12:06:08;95507.59;;;29.15;30.64
64668;BME280;51077;42.716;23.344;2024-03-08T12:08:35;95509.38;;;29.38;30.40
64668;BME280;51077;42.716;23.344;2024-03-08T12:11:01;95500.31;;;29.55;30.50
64668;BME280;51077;42.716;23.344;2024-03-08T12:13:33;95510.69;;;29.80;29.96
64668;BME280;51077;42.716;23.344;2024-03-08T12:16:00;95508.22;;;29.72;29.98
64668;BME280;51077;42.716;23.344;2024-03-08T12:18:29;95503.19;;;29.41;30.13
64668;BME280;51077;42.716;23.344;2024-03-08T12:21:09;95502.53;;;29.57;29.49
64668;BME280;51077;42.716;23.344;2024-03-08T12:23:39;95500.31;;;29.55;30.06
64668;BME280;51077;42.716;23.344;2024-03-08T12:26:23;95487.75;;;29.58;29.12
64668;BME280;51077;42.716;23.344;2024-03-08T12:28:49;95498.63;;;29.64;29.27
64668;BME280;51077;42.716;23.344;2024-03-08T12:31:15;95495.09;;;29.79;29.37
64668;BME280;51077;42.716;23.344;2024-03-08T12:33:49;95490.59;;;29.90;28.86
64668;BME280;51077;42.716;23.344;2024-03-08T12:36:16;95489.59;;;29.99;28.71
64668;BME280;51077;42.716;23.344;2024-03-08T12:38:45;95485.03;;;30.08;28.58
64668;BME280;51077;42.716;23.344;2024-03-08T12:41:16;95492.16;;;30.09;28.36
64668;BME280;51077;42.716;23.344;2024-03-08T12:43:46;95482.47;;;30.14;28.51
64668;BME280;51077;42.716;23.344;2024-03-08T12:46:18;95478.31;;;30.15;27.98
64668;BME280;51077;42.716;23.344;2024-03-08T12:48:45;95478.38;;;30.17;27.88
64668;BME280;51077;42.716;23.344;2024-03-08T12:51:15;95475.53;;;30.17;27.72
64668;BME280;51077;42.716;23.344;2024-03-08T12:53:44;95475.47;;;30.15;27.96
64668;BME280;51077;42.716;23.344;2024-03-08T12:56:33;95479.53;;;30.12;27.20
64668;BME280;51077;42.716;23.344;2024-03-08T12:59:02;95476.09;;;29.97;27.49
64668;BME280;51077;42.716;23.344;2024-03-08T13:01:28;95468.63;;;29.88;27.49